sensor_id;sensor_type;location;lat;lon;timestamp;temperature;humidity
63537;DHT22;49686;51.880;5.632;2022-09-24T00:00:32;10.80;99.90
63537;DHT22;49686;51.880;5.632;2022-09-24T00:02:58;10.80;99.90
63537;DHT22;49686;51.880;5.632;2022-09-24T00:05:25;10.70;99.90
63537;DHT22;49686;51.880;5.632;2022-09-24T00:07:53;10.80;99.90
63537;DHT22;49686;51.880;5.632;2022-09-24T00:10:19;10.70;99.90
63537;DHT22;49686;51.880;5.632;2022-09-24T00:12:46;10.70;99.90
63537;DHT22;49686;51.880;5.632;2022-09-24T00:15:13;10.70;99.90
63537;DHT22;49686;51.880;5.632;2022-09-24T00:17:41;10.70;99.90
63537;DHT22;49686;51.880;5.632;2022-09-24T00:20:08;10.70;99.90
63537;DHT22;49686;51.880;5.632;2022-09-24T00:22:36;10.70;99.90
63537;DHT22;49686;51.880;5.632;2022-09-24T00:25:03;10.70;99.90
63537;DHT22;49686;51.880;5.632;2022-09-24T00:27:30;10.70;99.90
63537;DHT22;49686;51.880;5.632;2022-09-24T00:29:57;10.70;99.90
63537;DHT22;49686;51.880;5.632;2022-09-24T00:32:24;10.70;99.90
63537;DHT22;49686;51.880;5.632;2022-09-24T00:34:52;10.60;99.90
63537;DHT22;49686;51.880;5.632;2022-09-24T00:37:20;10.60;99.90
63537;DHT22;49686;51.880;5.632;2022-09-24T00:39:46;10.60;99.90
63537;DHT22;49686;51.880;5.632;2022-09-24T00:42:13;10.60;99.90
63537;DHT22;49686;51.880;5.632;2022-09-24T00:44:54;10.50;99.90
63537;DHT22;49686;51.880;5.632;2022-09-24T00:47:36;10.60;99.90
63537;DHT22;49686;51.880;5.632;2022-09-24T00:50:17;10.50;99.90
63537;DHT22;49686;51.880;5.632;2022-09-24T00:52:49;10.60;99.90
63537;DHT22;49686;51.880;5.632;2022-09-24T00:55:18;10.50;99.90
63537;DHT22;49686;51.880;5.632;2022-09-24T00:57:47;10.50;99.90
63537;DHT22;49686;51.880;5.632;2022-09-24T01:00:14;10.50;99.90
63537;DHT22;49686;51.880;5.632;2022-09-24T01:02:45;10.50;99.90
63537;DHT22;49686;51.880;5.632;2022-09-24T01:05:12;10.50;99.90
63537;DHT22;49686;51.880;5.632;2022-09-24T01:07:40;10.50;99.90
63537;DHT22;49686;51.880;5.632;2022-09-24T01:10:08;10.50;99.90
63537;DHT22;49686;51.880;5.632;2022-09-24T01:12:41;10.60;99.90
63537;DHT22;49686;51.880;5.632;2022-09-24T01:15:16;10.60;99.90
63537;DHT22;49686;51.880;5.632;2022-09-24T01:17:50;10.60;99.90
63537;DHT22;49686;51.880;5.632;2022-09-24T01:20:36;10.50;99.90
63537;DHT22;49686;51.880;5.632;2022-09-24T01:23:27;10.50;99.90
63537;DHT22;49686;51.880;5.632;2022-09-24T01:26:11;10.40;99.90
63537;DHT22;49686;51.880;5.632;2022-09-24T01:28:51;10.40;99.90
63537;DHT22;49686;51.880;5.632;2022-09-24T01:31:27;10.30;99.90
63537;DHT22;49686;51.880;5.632;2022-09-24T01:33:56;10.30;99.90
63537;DHT22;49686;51.880;5.632;2022-09-24T01:36:26;10.30;99.90
63537;DHT22;49686;51.880;5.632;2022-09-24T01:38:54;10.30;99.90
63537;DHT22;49686;51.880;5.632;2022-09-24T01:41:21;10.20;99.90
63537;DHT22;49686;51.880;5.632;2022-09-24T01:43:49;10.20;99.90
63537;DHT22;49686;51.880;5.632;2022-09-24T01:46:17;10.20;99.90
63537;DHT22;49686;51.880;5.632;2022-09-24T01:48:47;10.20;99.90
63537;DHT22;49686;51.880;5.632;2022-09-24T01:51:17;10.20;99.90
63537;DHT22;49686;51.880;5.632;2022-09-24T01:53:51;10.20;99.90
63537;DHT22;49686;51.880;5.632;2022-09-24T01:56:24;10.20;99.90
63537;DHT22;49686;51.880;5.632;2022-09-24T01:58:56;10.20;99.90
63537;DHT22;49686;51.880;5.632;2022-09-24T02:01:31;10.20;99.90
63537;DHT22;49686;51.880;5.632;2022-09-24T02:04:05;10.20;99.90
63537;DHT22;49686;51.880;5.632;2022-09-24T02:06:39;10.20;99.90
63537;DHT22;49686;51.880;5.632;2022-09-24T02:09:29;10.20;99.90
63537;DHT22;49686;51.880;5.632;2022-09-24T02:11:58;10.20;99.90
63537;DHT22;49686;51.880;5.632;2022-09-24T02:14:28;10.20;99.90
63537;DHT22;49686;51.880;5.632;2022-09-24T02:16:59;10.20;99.90
63537;DHT22;49686;51.880;5.632;2022-09-24T02:19:35;10.10;99.90
63537;DHT22;49686;51.880;5.632;2022-09-24T02:22:05;10.10;99.90
63537;DHT22;49686;51.880;5.632;2022-09-24T02:24:38;10.10;99.90
63537;DHT22;49686;51.880;5.632;2022-09-24T02:27:09;10.10;99.90
63537;DHT22;49686;51.880;5.632;2022-09-24T02:29:37;10.10;99.90
63537;DHT22;49686;51.880;5.632;2022-09-24T02:32:07;10.10;99.90
63537;DHT22;49686;51.880;5.632;2022-09-24T02:34:40;10.20;99.90
63537;DHT22;49686;51.880;5.632;2022-09-24T02:37:10;10.10;99.90
63537;DHT22;49686;51.880;5.632;2022-09-24T02:39:38;10.10;99.90
63537;DHT22;49686;51.880;5.632;2022-09-24T02:42:09;10.10;99.90
63537;DHT22;49686;51.880;5.632;2022-09-24T02:44:36;10.20;99.90
63537;DHT22;49686;51.880;5.632;2022-09-24T02:47:06;10.20;99.90
63537;DHT22;49686;51.880;5.632;2022-09-24T02:49:33;10.20;99.90
63537;DHT22;49686;51.880;5.632;2022-09-24T02:52:02;10.20;99.90
63537;DHT22;49686;51.880;5.632;2022-09-24T02:54:29;10.20;99.90
63537;DHT22;49686;51.880;5.632;2022-09-24T02:56:56;10.20;99.90
63537;DHT22;49686;51.880;5.632;2022-09-24T02:59:23;10.20;99.90
63537;DHT22;49686;51.880;5.632;2022-09-24T03:01:51;10.20;99.90
63537;DHT22;49686;51.880;5.632;2022-09-24T03:04:26;10.30;99.90
63537;DHT22;49686;51.880;5.632;2022-09-24T03:06:54;10.20;99.90
63537;DHT22;49686;51.880;5.632;2022-09-24T03:09:22;10.30;99.90
63537;DHT22;49686;51.880;5.632;2022-09-24T03:11:48;10.30;99.90
63537;DHT22;49686;51.880;5.632;2022-09-24T03:14:16;10.30;99.90
63537;DHT22;49686;51.880;5.632;2022-09-24T03:16:43;10.30;99.90
63537;DHT22;49686;51.880;5.632;2022-09-24T03:19:10;10.30;99.90
63537;DHT22;49686;51.880;5.632;2022-09-24T03:21:37;10.30;99.90
63537;DHT22;49686;51.880;5.632;2022-09-24T03:24:04;10.40;99.90
63537;DHT22;49686;51.880;5.632;2022-09-24T03:26:32;10.40;99.90
63537;DHT22;49686;51.880;5.632;2022-09-24T03:28:59;10.40;99.90
63537;DHT22;49686;51.880;5.632;2022-09-24T03:31:26;10.40;99.90
63537;DHT22;49686;51.880;5.632;2022-09-24T03:33:53;10.40;99.90
63537;DHT22;49686;51.880;5.632;2022-09-24T03:36:22;10.40;99.90
63537;DHT22;49686;51.880;5.632;2022-09-24T03:38:51;10.40;99.90
63537;DHT22;49686;51.880;5.632;2022-09-24T03:41:18;10.40;99.90
63537;DHT22;49686;51.880;5.632;2022-09-24T03:43:47;10.40;99.90
63537;DHT22;49686;51.880;5.632;2022-09-24T03:46:13;10.40;99.90
63537;DHT22;49686;51.880;5.632;2022-09-24T03:48:40;10.30;99.90
63537;DHT22;49686;51.880;5.632;2022-09-24T03:51:09;10.30;99.90
63537;DHT22;49686;51.880;5.632;2022-09-24T03:53:37;10.30;99.90
63537;DHT22;49686;51.880;5.632;2022-09-24T03:56:04;10.30;99.90
63537;DHT22;49686;51.880;5.632;2022-09-24T03:58:33;10.30;99.90
63537;DHT22;49686;51.880;5.632;2022-09-24T04:01:01;10.30;99.90
63537;DHT22;49686;51.880;5.632;2022-09-24T04:03:28;10.30;99.90
63537;DHT22;49686;51.880;5.632;2022-09-24T04:05:57;10.30;99.90
63537;DHT22;49686;51.880;5.632;2022-09-24T04:08:23;10.30;99.90
63537;DHT22;49686;51.880;5.632;2022-09-24T04:10:50;10.30;99.90
63537;DHT22;49686;51.880;5.632;2022-09-24T04:13:18;10.30;99.90
63537;DHT22;49686;51.880;5.632;2022-09-24T04:15:45;10.30;99.90
63537;DHT22;49686;51.880;5.632;2022-09-24T04:18:13;10.30;99.90
63537;DHT22;49686;51.880;5.632;2022-09-24T04:20:41;10.30;99.90
63537;DHT22;49686;51.880;5.632;2022-09-24T04:23:09;10.30;99.90
63537;DHT22;49686;51.880;5.632;2022-09-24T04:25:36;10.30;99.90
63537;DHT22;49686;51.880;5.632;2022-09-24T04:28:04;10.30;99.90
63537;DHT22;49686;51.880;5.632;2022-09-24T04:30:33;10.30;99.90
63537;DHT22;49686;51.880;5.632;2022-09-24T04:33:00;10.30;99.90
63537;DHT22;49686;51.880;5.632;2022-09-24T04:35:31;10.30;99.90
63537;DHT22;49686;51.880;5.632;2022-09-24T04:37:58;10.30;99.90
63537;DHT22;49686;51.880;5.632;2022-09-24T04:40:25;10.30;99.90
63537;DHT22;49686;51.880;5.632;2022-09-24T04:42:53;10.30;99.90
63537;DHT22;49686;51.880;5.632;2022-09-24T04:45:20;10.30;99.90
63537;DHT22;49686;51.880;5.632;2022-09-24T04:47:47;10.40;99.90
63537;DHT22;49686;51.880;5.632;2022-09-24T04:50:15;10.30;99.90
63537;DHT22;49686;51.880;5.632;2022-09-24T04:52:43;10.30;99.90
63537;DHT22;49686;51.880;5.632;2022-09-24T04:55:10;10.40;99.90
63537;DHT22;49686;51.880;5.632;2022-09-24T04:57:37;10.40;99.90
63537;DHT22;49686;51.880;5.632;2022-09-24T05:00:06;10.30;99.90
63537;DHT22;49686;51.880;5.632;2022-09-24T05:02:33;10.40;99.90
63537;DHT22;49686;51.880;5.632;2022-09-24T05:05:00;10.40;99.90
63537;DHT22;49686;51.880;5.632;2022-09-24T05:07:27;10.40;99.90
63537;DHT22;49686;51.880;5.632;2022-09-24T05:09:55;10.40;99.90
63537;DHT22;49686;51.880;5.632;2022-09-24T05:12:23;10.30;99.90
63537;DHT22;49686;51.880;5.632;2022-09-24T05:14:51;10.30;99.90
63537;DHT22;49686;51.880;5.632;2022-09-24T05:17:18;10.30;99.90
63537;DHT22;49686;51.880;5.632;2022-09-24T05:19:45;10.30;99.90
63537;DHT22;49686;51.880;5.632;2022-09-24T05:22:12;10.40;99.90
63537;DHT22;49686;51.880;5.632;2022-09-24T05:24:39;10.40;99.90
63537;DHT22;49686;51.880;5.632;2022-09-24T05:27:08;10.30;99.90
63537;DHT22;49686;51.880;5.632;2022-09-24T05:29:36;10.40;99.90
63537;DHT22;49686;51.880;5.632;2022-09-24T05:32:04;10.40;99.90
63537;DHT22;49686;51.880;5.632;2022-09-24T05:34:32;10.40;99.90
63537;DHT22;49686;51.880;5.632;2022-09-24T05:36:59;10.40;99.90
63537;DHT22;49686;51.880;5.632;2022-09-24T05:39:26;10.40;99.90
63537;DHT22;49686;51.880;5.632;2022-09-24T05:42:00;10.40;99.90
63537;DHT22;49686;51.880;5.632;2022-09-24T05:44:29;10.40;99.90
63537;DHT22;49686;51.880;5.632;2022-09-24T05:46:56;10.40;99.90
63537;DHT22;49686;51.880;5.632;2022-09-24T05:49:24;10.40;99.90
63537;DHT22;49686;51.880;5.632;2022-09-24T05:51:51;10.40;99.90
63537;DHT22;49686;51.880;5.632;2022-09-24T05:54:18;10.40;99.90
63537;DHT22;49686;51.880;5.632;2022-09-24T05:56:45;10.40;99.90
63537;DHT22;49686;51.880;5.632;2022-09-24T05:59:12;10.40;99.90
63537;DHT22;49686;51.880;5.632;2022-09-24T06:01:41;10.50;99.90
63537;DHT22;49686;51.880;5.632;2022-09-24T06:04:08;10.50;99.90
63537;DHT22;49686;51.880;5.632;2022-09-24T06:06:35;10.50;99.90
63537;DHT22;49686;51.880;5.632;2022-09-24T06:09:02;10.40;99.90
63537;DHT22;49686;51.880;5.632;2022-09-24T06:11:30;10.40;99.90
63537;DHT22;49686;51.880;5.632;2022-09-24T06:14:03;10.40;99.90
63537;DHT22;49686;51.880;5.632;2022-09-24T06:16:31;10.50;99.90
63537;DHT22;49686;51.880;5.632;2022-09-24T06:19:00;10.50;99.90
63537;DHT22;49686;51.880;5.632;2022-09-24T06:21:28;10.50;99.90
63537;DHT22;49686;51.880;5.632;2022-09-24T06:23:55;10.50;99.90
63537;DHT22;49686;51.880;5.632;2022-09-24T06:26:22;10.50;99.90
63537;DHT22;49686;51.880;5.632;2022-09-24T06:28:49;10.40;99.90
63537;DHT22;49686;51.880;5.632;2022-09-24T06:31:19;10.50;99.90
63537;DHT22;49686;51.880;5.632;2022-09-24T06:33:46;10.50;99.90
63537;DHT22;49686;51.880;5.632;2022-09-24T06:36:14;10.50;99.90
63537;DHT22;49686;51.880;5.632;2022-09-24T06:38:41;10.50;99.90
63537;DHT22;49686;51.880;5.632;2022-09-24T06:41:08;10.50;99.90
63537;DHT22;49686;51.880;5.632;2022-09-24T06:43:35;10.50;99.90
63537;DHT22;49686;51.880;5.632;2022-09-24T06:46:02;10.50;99.90
63537;DHT22;49686;51.880;5.632;2022-09-24T06:48:30;10.60;99.90
63537;DHT22;49686;51.880;5.632;2022-09-24T06:50:57;10.50;99.90
63537;DHT22;49686;51.880;5.632;2022-09-24T06:53:26;10.50;99.90
63537;DHT22;49686;51.880;5.632;2022-09-24T06:55:55;10.60;99.90
63537;DHT22;49686;51.880;5.632;2022-09-24T06:58:22;10.50;99.90
63537;DHT22;49686;51.880;5.632;2022-09-24T07:00:52;10.60;99.90
63537;DHT22;49686;51.880;5.632;2022-09-24T07:03:19;10.60;99.90
63537;DHT22;49686;51.880;5.632;2022-09-24T07:05:46;10.60;99.90
63537;DHT22;49686;51.880;5.632;2022-09-24T07:08:13;10.70;99.90
63537;DHT22;49686;51.880;5.632;2022-09-24T07:10:45;10.70;99.90
63537;DHT22;49686;51.880;5.632;2022-09-24T07:13:14;10.70;99.90
63537;DHT22;49686;51.880;5.632;2022-09-24T07:15:41;10.70;99.90
63537;DHT22;49686;51.880;5.632;2022-09-24T07:18:09;10.80;99.90
63537;DHT22;49686;51.880;5.632;2022-09-24T07:20:36;10.70;99.90
63537;DHT22;49686;51.880;5.632;2022-09-24T07:23:03;10.90;99.90
63537;DHT22;49686;51.880;5.632;2022-09-24T07:25:31;10.90;99.90
63537;DHT22;49686;51.880;5.632;2022-09-24T07:28:04;10.80;99.90
63537;DHT22;49686;51.880;5.632;2022-09-24T07:30:31;10.90;99.90
63537;DHT22;49686;51.880;5.632;2022-09-24T07:32:58;10.90;99.90
63537;DHT22;49686;51.880;5.632;2022-09-24T07:35:26;10.90;99.90
63537;DHT22;49686;51.880;5.632;2022-09-24T07:37:57;10.90;99.90
63537;DHT22;49686;51.880;5.632;2022-09-24T07:40:24;10.90;99.90
63537;DHT22;49686;51.880;5.632;2022-09-24T07:42:51;10.90;99.90
63537;DHT22;49686;51.880;5.632;2022-09-24T07:45:19;10.90;99.90
63537;DHT22;49686;51.880;5.632;2022-09-24T07:47:47;10.80;99.90
63537;DHT22;49686;51.880;5.632;2022-09-24T07:50:14;10.90;99.90
63537;DHT22;49686;51.880;5.632;2022-09-24T07:52:41;10.90;99.90
63537;DHT22;49686;51.880;5.632;2022-09-24T07:55:08;10.90;99.90
63537;DHT22;49686;51.880;5.632;2022-09-24T07:57:35;10.90;99.90
63537;DHT22;49686;51.880;5.632;2022-09-24T08:00:03;10.90;99.90
63537;DHT22;49686;51.880;5.632;2022-09-24T08:02:32;10.90;99.90
63537;DHT22;49686;51.880;5.632;2022-09-24T08:04:58;10.90;99.90
63537;DHT22;49686;51.880;5.632;2022-09-24T08:07:25;11.00;99.90
63537;DHT22;49686;51.880;5.632;2022-09-24T08:09:52;11.00;99.90
63537;DHT22;49686;51.880;5.632;2022-09-24T08:12:19;11.00;99.90
63537;DHT22;49686;51.880;5.632;2022-09-24T08:14:46;11.00;99.90
63537;DHT22;49686;51.880;5.632;2022-09-24T08:17:13;11.20;99.90
63537;DHT22;49686;51.880;5.632;2022-09-24T08:19:42;11.10;99.90
63537;DHT22;49686;51.880;5.632;2022-09-24T08:22:08;11.10;99.90
63537;DHT22;49686;51.880;5.632;2022-09-24T08:24:36;11.10;99.90
63537;DHT22;49686;51.880;5.632;2022-09-24T08:27:03;11.10;99.90
63537;DHT22;49686;51.880;5.632;2022-09-24T08:29:29;11.10;99.90
63537;DHT22;49686;51.880;5.632;2022-09-24T08:31:57;11.00;99.90
63537;DHT22;49686;51.880;5.632;2022-09-24T08:34:23;11.00;99.90
63537;DHT22;49686;51.880;5.632;2022-09-24T08:36:51;11.10;99.90
63537;DHT22;49686;51.880;5.632;2022-09-24T08:39:19;11.10;99.90
63537;DHT22;49686;51.880;5.632;2022-09-24T08:41:54;11.00;99.90
63537;DHT22;49686;51.880;5.632;2022-09-24T08:44:26;11.00;99.90
63537;DHT22;49686;51.880;5.632;2022-09-24T08:47:07;11.10;99.90
63537;DHT22;49686;51.880;5.632;2022-09-24T08:49:40;11.10;99.90
63537;DHT22;49686;51.880;5.632;2022-09-24T08:52:22;11.10;99.90
63537;DHT22;49686;51.880;5.632;2022-09-24T08:54:52;11.10;99.90
63537;DHT22;49686;51.880;5.632;2022-09-24T08:57:20;11.00;99.90
63537;DHT22;49686;51.880;5.632;2022-09-24T08:59:50;10.90;99.90
63537;DHT22;49686;51.880;5.632;2022-09-24T09:02:32;11.00;99.90
63537;DHT22;49686;51.880;5.632;2022-09-24T09:05:08;11.00;99.90
63537;DHT22;49686;51.880;5.632;2022-09-24T09:07:47;11.00;99.90
63537;DHT22;49686;51.880;5.632;2022-09-24T09:10:20;10.90;99.90
63537;DHT22;49686;51.880;5.632;2022-09-24T09:12:54;11.00;99.90
63537;DHT22;49686;51.880;5.632;2022-09-24T09:15:24;11.00;99.90
63537;DHT22;49686;51.880;5.632;2022-09-24T09:17:56;11.00;99.90
63537;DHT22;49686;51.880;5.632;2022-09-24T09:20:29;11.00;99.90
63537;DHT22;49686;51.880;5.632;2022-09-24T09:23:12;11.00;99.90
63537;DHT22;49686;51.880;5.632;2022-09-24T09:25:41;11.10;99.90
63537;DHT22;49686;51.880;5.632;2022-09-24T09:28:12;11.10;99.90
63537;DHT22;49686;51.880;5.632;2022-09-24T09:30:50;11.10;99.90
63537;DHT22;49686;51.880;5.632;2022-09-24T09:33:34;11.20;99.90
63537;DHT22;49686;51.880;5.632;2022-09-24T09:36:15;11.30;99.90
63537;DHT22;49686;51.880;5.632;2022-09-24T09:38:52;11.30;99.90
63537;DHT22;49686;51.880;5.632;2022-09-24T09:41:30;11.40;99.90
63537;DHT22;49686;51.880;5.632;2022-09-24T09:44:01;11.40;99.90
63537;DHT22;49686;51.880;5.632;2022-09-24T09:46:37;11.50;99.90
63537;DHT22;49686;51.880;5.632;2022-09-24T09:49:07;11.50;99.90
63537;DHT22;49686;51.880;5.632;2022-09-24T09:51:38;11.40;99.90
63537;DHT22;49686;51.880;5.632;2022-09-24T09:54:08;11.50;99.90
63537;DHT22;49686;51.880;5.632;2022-09-24T09:56:37;11.40;99.90
63537;DHT22;49686;51.880;5.632;2022-09-24T09:59:17;11.40;99.90
63537;DHT22;49686;51.880;5.632;2022-09-24T10:01:46;11.40;99.90
63537;DHT22;49686;51.880;5.632;2022-09-24T10:04:28;11.50;99.90
63537;DHT22;49686;51.880;5.632;2022-09-24T10:07:04;11.60;99.90
63537;DHT22;49686;51.880;5.632;2022-09-24T10:09:33;11.70;99.90
63537;DHT22;49686;51.880;5.632;2022-09-24T10:12:15;11.70;99.90
63537;DHT22;49686;51.880;5.632;2022-09-24T10:14:43;11.70;99.90
63537;DHT22;49686;51.880;5.632;2022-09-24T10:17:12;11.50;99.90
63537;DHT22;49686;51.880;5.632;2022-09-24T10:19:41;11.50;99.90
63537;DHT22;49686;51.880;5.632;2022-09-24T10:22:14;11.60;99.90
63537;DHT22;49686;51.880;5.632;2022-09-24T10:24:44;11.30;99.90
63537;DHT22;49686;51.880;5.632;2022-09-24T10:27:13;11.30;99.90
63537;DHT22;49686;51.880;5.632;2022-09-24T10:29:44;11.30;99.90
63537;DHT22;49686;51.880;5.632;2022-09-24T10:32:14;11.30;99.90
63537;DHT22;49686;51.880;5.632;2022-09-24T10:34:52;11.30;99.90
63537;DHT22;49686;51.880;5.632;2022-09-24T10:37:19;11.30;99.90
63537;DHT22;49686;51.880;5.632;2022-09-24T10:39:57;11.20;99.90
63537;DHT22;49686;51.880;5.632;2022-09-24T10:42:25;11.20;99.90
63537;DHT22;49686;51.880;5.632;2022-09-24T10:44:53;11.20;99.90
63537;DHT22;49686;51.880;5.632;2022-09-24T10:47:26;11.30;99.90
63537;DHT22;49686;51.880;5.632;2022-09-24T10:50:19;11.30;99.90
63537;DHT22;49686;51.880;5.632;2022-09-24T10:52:52;11.20;99.90
63537;DHT22;49686;51.880;5.632;2022-09-24T10:55:43;11.40;99.90
63537;DHT22;49686;51.880;5.632;2022-09-24T10:58:27;11.30;99.90
63537;DHT22;49686;51.880;5.632;2022-09-24T11:01:04;11.30;99.90
63537;DHT22;49686;51.880;5.632;2022-09-24T11:03:46;11.20;99.90
63537;DHT22;49686;51.880;5.632;2022-09-24T11:06:28;11.20;99.90
63537;DHT22;49686;51.880;5.632;2022-09-24T11:09:10;11.40;99.90
63537;DHT22;49686;51.880;5.632;2022-09-24T11:11:43;11.30;99.90
63537;DHT22;49686;51.880;5.632;2022-09-24T11:14:27;11.30;99.90
63537;DHT22;49686;51.880;5.632;2022-09-24T11:17:09;11.30;99.90
63537;DHT22;49686;51.880;5.632;2022-09-24T11:25:50;11.40;99.90
63537;DHT22;49686;51.880;5.632;2022-09-24T11:28:56;11.50;99.90
63537;DHT22;49686;51.880;5.632;2022-09-24T11:31:33;11.50;99.90
63537;DHT22;49686;51.880;5.632;2022-09-24T11:34:25;11.60;99.90
63537;DHT22;49686;51.880;5.632;2022-09-24T11:37:06;11.50;99.90
63537;DHT22;49686;51.880;5.632;2022-09-24T11:39:51;11.70;99.90
63537;DHT22;49686;51.880;5.632;2022-09-24T11:42:25;11.60;99.90
63537;DHT22;49686;51.880;5.632;2022-09-24T11:45:18;11.60;99.90
63537;DHT22;49686;51.880;5.632;2022-09-24T11:48:17;11.80;99.90
63537;DHT22;49686;51.880;5.632;2022-09-24T11:50:58;11.80;99.90
63537;DHT22;49686;51.880;5.632;2022-09-24T11:53:35;11.50;99.90
63537;DHT22;49686;51.880;5.632;2022-09-24T11:56:11;11.30;99.90
63537;DHT22;49686;51.880;5.632;2022-09-24T11:58:43;11.60;99.90
63537;DHT22;49686;51.880;5.632;2022-09-24T12:01:16;11.40;99.90
63537;DHT22;49686;51.880;5.632;2022-09-24T12:03:48;11.60;99.90
63537;DHT22;49686;51.880;5.632;2022-09-24T12:06:20;11.60;99.90
63537;DHT22;49686;51.880;5.632;2022-09-24T12:08:55;11.40;99.90
63537;DHT22;49686;51.880;5.632;2022-09-24T12:11:31;11.40;99.90
63537;DHT22;49686;51.880;5.632;2022-09-24T12:14:02;11.60;99.90
63537;DHT22;49686;51.880;5.632;2022-09-24T12:16:35;11.70;99.90
63537;DHT22;49686;51.880;5.632;2022-09-24T12:19:09;11.70;99.90
63537;DHT22;49686;51.880;5.632;2022-09-24T12:21:40;12.00;99.90
63537;DHT22;49686;51.880;5.632;2022-09-24T12:24:12;12.00;99.90
63537;DHT22;49686;51.880;5.632;2022-09-24T12:26:44;12.20;99.90
63537;DHT22;49686;51.880;5.632;2022-09-24T12:29:32;12.00;99.90
63537;DHT22;49686;51.880;5.632;2022-09-24T12:32:10;12.10;99.90
63537;DHT22;49686;51.880;5.632;2022-09-24T12:34:44;12.10;99.90
63537;DHT22;49686;51.880;5.632;2022-09-24T12:37:17;12.00;99.90
63537;DHT22;49686;51.880;5.632;2022-09-24T12:39:54;12.00;99.90
63537;DHT22;49686;51.880;5.632;2022-09-24T12:42:26;12.10;99.90
63537;DHT22;49686;51.880;5.632;2022-09-24T12:44:57;12.10;99.90
63537;DHT22;49686;51.880;5.632;2022-09-24T12:47:29;12.10;99.90
63537;DHT22;49686;51.880;5.632;2022-09-24T12:50:00;12.10;99.90
63537;DHT22;49686;51.880;5.632;2022-09-24T12:52:36;12.00;99.90
63537;DHT22;49686;51.880;5.632;2022-09-24T12:55:18;12.10;99.90
63537;DHT22;49686;51.880;5.632;2022-09-24T12:57:49;12.10;99.90
63537;DHT22;49686;51.880;5.632;2022-09-24T13:00:35;12.10;99.90
63537;DHT22;49686;51.880;5.632;2022-09-24T13:03:06;12.40;99.90
63537;DHT22;49686;51.880;5.632;2022-09-24T13:05:45;12.40;99.90
63537;DHT22;49686;51.880;5.632;2022-09-24T13:08:23;12.50;99.90
63537;DHT22;49686;51.880;5.632;2022-09-24T13:10:54;12.60;99.90
63537;DHT22;49686;51.880;5.632;2022-09-24T13:13:24;12.40;99.90
63537;DHT22;49686;51.880;5.632;2022-09-24T13:15:58;12.50;99.90
63537;DHT22;49686;51.880;5.632;2022-09-24T13:18:29;12.80;99.90
63537;DHT22;49686;51.880;5.632;2022-09-24T13:20:59;12.50;99.90
63537;DHT22;49686;51.880;5.632;2022-09-24T13:23:41;12.50;99.90
63537;DHT22;49686;51.880;5.632;2022-09-24T13:26:13;12.20;99.90
63537;DHT22;49686;51.880;5.632;2022-09-24T13:28:59;12.40;99.90
63537;DHT22;49686;51.880;5.632;2022-09-24T13:31:32;12.40;99.90
63537;DHT22;49686;51.880;5.632;2022-09-24T13:34:13;12.50;99.90
63537;DHT22;49686;51.880;5.632;2022-09-24T13:36:44;12.40;99.90
63537;DHT22;49686;51.880;5.632;2022-09-24T13:39:19;12.10;99.90
63537;DHT22;49686;51.880;5.632;2022-09-24T13:41:56;11.70;99.90
63537;DHT22;49686;51.880;5.632;2022-09-24T13:44:29;11.80;99.90
63537;DHT22;49686;51.880;5.632;2022-09-24T13:46:59;11.90;99.90
63537;DHT22;49686;51.880;5.632;2022-09-24T13:49:29;11.70;99.90
63537;DHT22;49686;51.880;5.632;2022-09-24T13:52:06;11.70;99.90
63537;DHT22;49686;51.880;5.632;2022-09-24T13:54:37;11.80;99.90
63537;DHT22;49686;51.880;5.632;2022-09-24T13:57:11;11.60;99.90
63537;DHT22;49686;51.880;5.632;2022-09-24T13:59:38;11.70;99.90
63537;DHT22;49686;51.880;5.632;2022-09-24T14:02:22;11.60;99.90
63537;DHT22;49686;51.880;5.632;2022-09-24T14:04:56;11.60;99.90
63537;DHT22;49686;51.880;5.632;2022-09-24T14:07:24;11.60;99.90
63537;DHT22;49686;51.880;5.632;2022-09-24T14:10:03;11.60;99.90
63537;DHT22;49686;51.880;5.632;2022-09-24T14:12:30;11.40;99.90
63537;DHT22;49686;51.880;5.632;2022-09-24T14:14:58;11.50;99.90
63537;DHT22;49686;51.880;5.632;2022-09-24T14:17:25;11.50;99.90
63537;DHT22;49686;51.880;5.632;2022-09-24T14:19:56;11.50;99.90
63537;DHT22;49686;51.880;5.632;2022-09-24T14:22:28;11.60;99.90
63537;DHT22;49686;51.880;5.632;2022-09-24T14:24:59;11.50;99.90
63537;DHT22;49686;51.880;5.632;2022-09-24T14:27:28;11.40;99.90
63537;DHT22;49686;51.880;5.632;2022-09-24T14:29:59;11.30;99.90
63537;DHT22;49686;51.880;5.632;2022-09-24T14:32:28;11.10;99.90
63537;DHT22;49686;51.880;5.632;2022-09-24T14:34:58;11.00;99.90
63537;DHT22;49686;51.880;5.632;2022-09-24T14:37:27;11.00;99.90
63537;DHT22;49686;51.880;5.632;2022-09-24T14:39:58;10.90;99.90
63537;DHT22;49686;51.880;5.632;2022-09-24T14:42:29;10.80;99.90
63537;DHT22;49686;51.880;5.632;2022-09-24T14:44:59;10.90;99.90
63537;DHT22;49686;51.880;5.632;2022-09-24T14:47:29;10.90;99.90
63537;DHT22;49686;51.880;5.632;2022-09-24T14:49:57;11.00;99.90
63537;DHT22;49686;51.880;5.632;2022-09-24T14:52:27;11.00;99.90
63537;DHT22;49686;51.880;5.632;2022-09-24T14:55:08;10.90;99.90
63537;DHT22;49686;51.880;5.632;2022-09-24T14:57:37;11.00;99.90
63537;DHT22;49686;51.880;5.632;2022-09-24T15:00:19;11.10;99.90
63537;DHT22;49686;51.880;5.632;2022-09-24T15:02:49;11.20;99.90
63537;DHT22;49686;51.880;5.632;2022-09-24T15:05:22;11.20;99.90
63537;DHT22;49686;51.880;5.632;2022-09-24T15:07:52;11.30;99.90
63537;DHT22;49686;51.880;5.632;2022-09-24T15:10:20;11.30;99.90
63537;DHT22;49686;51.880;5.632;2022-09-24T15:12:48;11.30;99.90
63537;DHT22;49686;51.880;5.632;2022-09-24T15:15:26;11.30;99.90
63537;DHT22;49686;51.880;5.632;2022-09-24T15:17:53;11.30;99.90
63537;DHT22;49686;51.880;5.632;2022-09-24T15:20:22;11.40;99.90
63537;DHT22;49686;51.880;5.632;2022-09-24T15:22:48;11.40;99.90
63537;DHT22;49686;51.880;5.632;2022-09-24T15:25:15;11.30;99.90
63537;DHT22;49686;51.880;5.632;2022-09-24T15:27:44;11.30;99.90
63537;DHT22;49686;51.880;5.632;2022-09-24T15:30:17;11.30;99.90
63537;DHT22;49686;51.880;5.632;2022-09-24T15:32:45;11.30;99.90
63537;DHT22;49686;51.880;5.632;2022-09-24T15:35:13;11.30;99.90
63537;DHT22;49686;51.880;5.632;2022-09-24T15:37:42;11.20;99.90
63537;DHT22;49686;51.880;5.632;2022-09-24T15:40:16;11.10;99.90
63537;DHT22;49686;51.880;5.632;2022-09-24T15:42:44;11.00;99.90
63537;DHT22;49686;51.880;5.632;2022-09-24T15:45:15;11.10;99.90
63537;DHT22;49686;51.880;5.632;2022-09-24T15:47:42;11.10;99.90
63537;DHT22;49686;51.880;5.632;2022-09-24T15:50:09;11.10;99.90
63537;DHT22;49686;51.880;5.632;2022-09-24T15:52:43;11.10;99.90
63537;DHT22;49686;51.880;5.632;2022-09-24T15:55:15;11.10;99.90
63537;DHT22;49686;51.880;5.632;2022-09-24T15:57:43;11.10;99.90
63537;DHT22;49686;51.880;5.632;2022-09-24T16:00:15;11.20;99.90